createdAt,value
2019-05-29T00:04:19.895Z,99199.53
2019-05-29T00:14:27.382Z,99209.96
2019-05-29T00:24:30.822Z,99219.97
2019-05-29T00:34:35.384Z,99238.87
2019-05-29T00:44:39.981Z,99251.73
2019-05-29T00:54:49.325Z,99262.68
2019-05-29T01:04:53.796Z,99266.49
2019-05-29T01:14:59.095Z,99265.04
2019-05-29T01:25:03.635Z,99265.56
2019-05-29T01:35:08.310Z,99287.02
2019-05-29T01:45:12.965Z,99304.12
2019-05-29T01:55:17.877Z,99324.13
2019-05-29T02:05:22.626Z,99335.48
2019-05-29T02:15:33.469Z,99347.58
2019-05-29T02:25:33.317Z,99357.22
2019-05-29T02:35:37.915Z,99371.00
2019-05-29T02:45:53.840Z,99394.46
2019-05-29T02:55:48.797Z,99417.03
2019-05-29T03:05:56.754Z,99426.06
2019-05-29T03:16:10.740Z,99446.66
2019-05-29T03:26:07.816Z,99465.53
2019-05-29T03:36:13.528Z,99482.20
2019-05-29T03:46:30.090Z,99502.72
2019-05-29T03:56:24.251Z,99514.48
2019-05-29T04:06:29.126Z,99538.27
2019-05-29T04:16:54.102Z,99553.41
2019-05-29T04:26:41.394Z,99566.63
2019-05-29T04:36:46.984Z,99590.23
2019-05-29T04:47:09.409Z,99609.66
2019-05-29T04:56:57.608Z,99638.88
2019-05-29T05:07:02.074Z,99662.25
2019-05-29T05:17:06.622Z,99674.88
2019-05-29T05:27:12.182Z,99703.20
2019-05-29T05:37:16.623Z,99721.24
2019-05-29T05:47:21.161Z,99731.00
2019-05-29T05:57:25.654Z,99746.12
2019-05-29T06:07:30.100Z,99751.66
2019-05-29T06:17:34.683Z,99758.98
2019-05-29T06:27:39.371Z,99774.47
2019-05-29T06:37:43.940Z,99774.58
2019-05-29T06:47:48.549Z,99796.84
2019-05-29T06:57:53.004Z,99805.59
2019-05-29T07:07:57.672Z,99808.16
2019-05-29T07:18:02.285Z,99819.89
2019-05-29T07:28:06.852Z,99829.22
2019-05-29T07:38:11.368Z,99855.39
2019-05-29T07:48:16.780Z,99861.25
2019-05-29T07:58:21.318Z,99870.87
2019-05-29T08:08:28.160Z,99890.05
2019-05-29T08:18:32.665Z,99897.02
2019-05-29T08:28:37.353Z,99900.36
2019-05-29T08:38:42.921Z,99909.39
2019-05-29T08:48:49.968Z,99919.95
2019-05-29T08:58:55.703Z,99931.73
2019-05-29T09:09:00.226Z,99939.05
2019-05-29T09:19:08.144Z,99952.39
2019-05-29T09:29:17.761Z,99970.04
2019-05-29T09:39:20.673Z,99989.12
2019-05-29T09:49:26.109Z,99987.80
2019-05-29T09:59:32.252Z,100009.57
2019-05-29T10:09:36.974Z,100003.85
2019-05-29T10:19:41.429Z,100015.10
2019-05-29T10:29:48.830Z,100032.96
2019-05-29T10:39:52.995Z,100045.78
2019-05-29T10:49:57.664Z,100044.44
2019-05-29T11:00:02.578Z,100045.23
2019-05-29T11:10:13.460Z,100048.11
2019-05-29T11:20:19.820Z,100054.02
2019-05-29T11:30:24.633Z,100049.24
2019-05-29T11:40:29.768Z,100065.76
2019-05-29T11:50:35.867Z,100066.02
2019-05-29T12:00:40.567Z,100075.67
2019-05-29T12:10:45.014Z,100075.41
2019-05-29T12:20:52.084Z,100081.75
2019-05-29T12:30:56.962Z,100093.12
2019-05-29T12:41:01.853Z,100095.77
2019-05-29T12:51:06.502Z,100093.81
2019-05-29T13:01:11.056Z,100084.73
2019-05-29T13:11:15.491Z,100114.27
2019-05-29T13:21:20.009Z,100113.74
2019-05-29T13:31:25.974Z,100101.40
2019-05-29T13:41:30.477Z,100104.96
2019-05-29T13:51:34.973Z,100088.73
2019-05-29T14:01:39.500Z,100102.11
2019-05-29T14:11:44.089Z,100105.98
2019-05-29T14:21:48.599Z,100102.14
2019-05-29T14:31:53.262Z,100108.30
2019-05-29T14:41:57.897Z,100114.02
2019-05-29T14:52:02.610Z,100131.30
2019-05-29T15:02:18.929Z,100153.33
2019-05-29T15:12:15.626Z,100140.99
2019-05-29T15:22:20.236Z,100133.06
2019-05-29T15:32:25.147Z,100150.75
2019-05-29T15:42:29.619Z,100169.34
2019-05-29T15:52:35.170Z,100166.34
2019-05-29T16:02:39.914Z,100168.38
2019-05-29T16:12:44.376Z,100159.36
2019-05-29T16:22:48.812Z,100193.23
2019-05-29T16:32:53.327Z,100202.08
2019-05-29T16:42:58.151Z,100208.77
2019-05-29T16:53:02.763Z,100215.27
2019-05-29T17:03:07.210Z,100212.41
2019-05-29T17:13:11.645Z,100228.52
2019-05-29T17:23:17.078Z,100241.17
2019-05-29T17:33:23.029Z,100260.33
2019-05-29T17:43:28.714Z,100281.08
2019-05-29T17:53:33.450Z,100281.08
2019-05-29T18:03:39.239Z,100299.49
2019-05-29T18:13:44.033Z,100306.95
2019-05-29T18:23:48.640Z,100315.43
2019-05-29T18:33:53.362Z,100329.17
2019-05-29T18:43:57.815Z,100342.91
2019-05-29T18:54:02.395Z,100355.65
2019-05-29T19:04:07.000Z,100359.36
2019-05-29T19:14:11.537Z,100373.82
2019-05-29T19:24:16.096Z,100377.38
2019-05-29T19:34:20.743Z,100397.93
2019-05-29T19:44:26.267Z,100400.02
2019-05-29T19:54:31.695Z,100411.92
2019-05-29T20:04:37.364Z,100424.88
2019-05-29T20:14:41.833Z,100426.00
2019-05-29T20:24:46.780Z,100452.28
2019-05-29T20:34:51.328Z,100457.22
2019-05-29T20:44:56.090Z,100465.94
2019-05-29T20:55:00.663Z,100474.20
2019-05-29T21:05:07.678Z,100486.81
2019-05-29T21:15:13.181Z,100487.48
2019-05-29T21:25:19.291Z,100498.04
2019-05-29T21:35:24.232Z,100500.16
2019-05-29T21:45:28.709Z,100503.19
2019-05-29T21:55:33.206Z,100514.31
2019-05-29T22:05:38.555Z,100527.97
2019-05-29T22:15:43.131Z,100542.84
2019-05-29T22:25:47.627Z,100556.75
2019-05-29T22:35:53.899Z,100562.73
2019-05-29T22:45:59.720Z,100568.72
2019-05-29T22:56:04.429Z,100566.61
2019-05-29T23:06:09.284Z,100577.48
2019-05-29T23:16:13.777Z,100584.50
2019-05-29T23:26:18.352Z,100589.05
2019-05-29T23:36:22.988Z,100592.98
2019-05-29T23:46:28.433Z,100593.00
2019-05-29T23:56:32.847Z,100609.01
